Time;durP1;ratioP1;P1;durP2;ratioP2;P2;SDS_P1;SDS_P2;PMS_P1;PMS_P2;Temp;Humidity;BMP_temperature;BMP_pressure;BME280_temperature;BME280_humidity;BME280_pressure;Samples;Min_cycle;Max_cycle;Signal;HPM_P1;HPM_P2
2022/07/27 00:01:12;;;;;;;;;;;;;;;;;;5071615;28;786;-74
2022/07/27 00:03:38;;;;;;;;;;;;;;;;;;5071507;28;1399;-74
2022/07/27 00:06:04;;;;;;;;;;;;;;;;;;5072592;28;800;-74
2022/07/27 00:08:31;;;;;;;;;;;;;;;;;;5072120;28;1063;-75
2022/07/27 00:10:57;;;;;;;;;;;;;;;;;;5071865;28;1976;-74
2022/07/27 00:13:24;;;;;;;;;;;;;;;;;;5071812;28;1403;-73
2022/07/27 00:15:50;;;;;;;;;;;;;;;;;;5072241;28;1111;-75
2022/07/27 00:18:17;;;;;;;;;;;;;;;;;;5072141;28;1010;-75
2022/07/27 00:20:43;;;;;;;;;;;;;;;;;;5071803;28;841;-75
2022/07/27 00:23:09;;;;;;;;;;;;;;;;;;5071455;28;1321;-75
2022/07/27 00:25:36;;;;;;;;;;;;;;;;;;5071777;28;1087;-73
2022/07/27 00:28:02;;;;;;;;;;;;;;;;;;5071353;28;1123;-75
2022/07/27 00:30:29;;;;;;;;;;;;;;;;;;5053943;28;1973;-75
2022/07/27 00:32:56;;;;;;;;;;;;;;;;;;5053290;28;1386;-74
2022/07/27 00:35:22;;;;;;;;;;;;;;;;;;5071831;28;1110;-75
2022/07/27 00:37:48;;;;;;;;;;;;;;;;;;5071664;28;1047;-74
2022/07/27 00:40:14;;;;;;;;;;;;;;;;;;5071738;28;818;-74
2022/07/27 00:42:41;;;;;;;;;;;;;;;;;;5071105;28;1318;-75
2022/07/27 00:45:07;;;;;;;;;;;;;;;;;;5071289;28;1064;-75
2022/07/27 00:47:35;;;;;;;;;;;;;;;;;;5071308;28;846;-74
2022/07/27 00:50:01;;;;;;;;;;;;;;;;;;5071394;28;941;-74
2022/07/27 00:52:27;;;;;;;;;;;;;;;;;;5071058;28;1972;-74
2022/07/27 00:54:54;;;;;;;;;;;;;;;;;;5071231;28;1110;-75
2022/07/27 00:57:20;;;;;;;;;;;;;;;;;;5071255;28;1094;-74
2022/07/27 00:59:46;;;;;;;;;;;;;;;;;;5071162;28;938;-74
2022/07/27 01:02:12;;;;;;;;;;;;;;;;;;5070675;28;1154;-75
2022/07/27 01:04:40;;;;;;;;;;;;;;;;;;5071052;28;1056;-75
2022/07/27 01:07:06;;;;;;;;;;;;;;;;;;5071189;28;1068;-74
2022/07/27 01:12:31;;;;;;;;;;;;;;;;;;4988919;28;1918;-75
2022/07/27 01:14:57;;;;;;;;;;;;;;;;;;4989250;28;1072;-75
2022/07/27 01:17:24;;;;;;;;;;;;;;;;;;5007440;28;1390;-75
2022/07/27 01:19:52;;;;;;;;;;;;;;;;;;5071041;28;1130;-75
2022/07/27 01:22:19;;;;;;;;;;;;;;;;;;5070280;28;1310;-74
2022/07/27 01:24:45;;;;;;;;;;;;;;;;;;5070830;28;1480;-75
2022/07/27 01:27:11;;;;;;;;;;;;;;;;;;5068260;28;1500;-74
2022/07/27 01:29:39;;;;;;;;;;;;;;;;;;5071142;28;782;-72
2022/07/27 01:32:05;;;;;;;;;;;;;;;;;;5070404;28;1910;-74
2022/07/27 01:34:32;;;;;;;;;;;;;;;;;;5070695;28;1375;-74
2022/07/27 01:36:58;;;;;;;;;;;;;;;;;;5070720;28;1008;-74
2022/07/27 01:39:26;;;;;;;;;;;;;;;;;;5052677;28;1175;-74
2022/07/27 01:41:52;;;;;;;;;;;;;;;;;;5070565;28;1060;-74
2022/07/27 01:44:18;;;;;;;;;;;;;;;;;;5070789;28;1394;-74
2022/07/27 01:46:45;;;;;;;;;;;;;;;;;;5070740;28;1086;-72
2022/07/27 01:49:11;;;;;;;;;;;;;;;;;;5070635;28;904;-73
2022/07/27 01:51:37;;;;;;;;;;;;;;;;;;5070142;28;1918;-74
2022/07/27 01:54:03;;;;;;;;;;;;;;;;;;5070578;28;1430;-73
2022/07/27 01:56:31;;;;;;;;;;;;;;;;;;5070561;28;818;-75
2022/07/27 01:58:57;;;;;;;;;;;;;;;;;;5061490;28;2494;-72
2022/07/27 02:01:24;;;;;;;;;;;;;;;;;;5070322;28;1098;-74
2022/07/27 02:03:50;;;;;;;;;;;;;;;;;;5070680;28;1353;-74
2022/07/27 02:06:16;;;;;;;;;;;;;;;;;;5069726;28;1528;-74
2022/07/27 02:08:42;;;;;;;;;;;;;;;;;;5047405;28;1337;-74
2022/07/27 02:13:54;;;;;;;;;;;;;;;;;;5069825;28;1328;-74
2022/07/27 02:16:20;;;;;;;;;;;;;;;;;;5070418;28;1071;-72
2022/07/27 02:18:46;;;;;;;;;;;;;;;;;;5070572;28;819;-74
2022/07/27 02:21:12;;;;;;;;;;;;;;;;;;5070256;28;928;-74
2022/07/27 02:23:39;;;;;;;;;;;;;;;;;;5065911;22;3778;-70
2022/07/27 02:26:05;;;;;;;;;;;;;;;;;;5072386;28;1133;-70
2022/07/27 02:28:32;;;;;;;;;;;;;;;;;;5074465;28;1082;-69
2022/07/27 02:30:59;;;;;;;;;;;;;;;;;;5074477;28;1910;-70
2022/07/27 02:33:25;;;;;;;;;;;;;;;;;;5074166;28;1404;-70
2022/07/27 02:35:52;;;;;;;;;;;;;;;;;;5074188;28;1396;-70
2022/07/27 02:38:18;;;;;;;;;;;;;;;;;;5074043;28;873;-70
2022/07/27 02:40:44;;;;;;;;;;;;;;;;;;5074160;28;1075;-70
2022/07/27 02:43:11;;;;;;;;;;;;;;;;;;5073604;28;1308;-70
2022/07/27 02:45:37;;;;;;;;;;;;;;;;;;5055997;28;1176;-71
2022/07/27 02:48:05;;;;;;;;;;;;;;;;;;5074236;28;1079;-70
2022/07/27 02:50:31;;;;;;;;;;;;;;;;;;5074028;28;968;-71
2022/07/27 02:52:58;;;;;;;;;;;;;;;;;;5073171;28;1975;-71
2022/07/27 02:55:24;;;;;;;;;;;;;;;;;;5073847;28;953;-70
2022/07/27 02:57:50;;;;;;;;;;;;;;;;;;5074052;28;1144;-70
2022/07/27 03:00:16;;;;;;;;;;;;;;;;;;5073600;28;893;-70
2022/07/27 03:02:42;;;;;;;;;;;;;;;;;;5073651;28;1126;-71
2022/07/27 03:05:10;;;;;;;;;;;;;;;;;;5073781;28;1403;-69
2022/07/27 03:07:37;;;;;;;;;;;;;;;;;;5060904;28;1998;-71
2022/07/27 03:10:03;;;;;;;;;;;;;;;;;;5061177;28;1293;-71
2022/07/27 03:12:30;;;;;;;;;;;;;;;;;;5066068;28;1922;-71
2022/07/27 03:14:56;;;;;;;;;;;;;;;;;;5073740;28;1304;-70
2022/07/27 03:17:22;;;;;;;;;;;;;;;;;;5055658;28;1721;-71
2022/07/27 03:19:49;;;;;;;;;;;;;;;;;;5073585;28;870;-71
2022/07/27 03:22:16;;;;;;;;;;;;;;;;;;5053725;28;1845;-70
2022/07/27 03:24:43;;;;;;;;;;;;;;;;;;5053278;28;1324;-70
2022/07/27 03:27:09;;;;;;;;;;;;;;;;;;5053479;28;1071;-70
2022/07/27 03:29:35;;;;;;;;;;;;;;;;;;5053180;28;1083;-70
2022/07/27 03:32:01;;;;;;;;;;;;;;;;;;5053054;28;1910;-70
2022/07/27 03:34:27;;;;;;;;;;;;;;;;;;5035359;28;1463;-70
2022/07/27 03:36:53;;;;;;;;;;;;;;;;;;5053084;28;1151;-70
2022/07/27 03:39:21;;;;;;;;;;;;;;;;;;5053182;28;1158;-71
2022/07/27 03:41:47;;;;;;;;;;;;;;;;;;5052749;28;956;-70
2022/07/27 03:44:13;;;;;;;;;;;;;;;;;;5034920;28;1345;-72
2022/07/27 03:46:39;;;;;;;;;;;;;;;;;;5049720;28;1411;-73
2022/07/27 03:49:06;;;;;;;;;;;;;;;;;;5036337;28;1717;-72
2022/07/27 03:51:32;;;;;;;;;;;;;;;;;;5058098;28;1918;-72
2022/07/27 03:53:58;;;;;;;;;;;;;;;;;;5059733;28;1412;-72
2022/07/27 03:56:26;;;;;;;;;;;;;;;;;;5070805;28;1554;-73
2022/07/27 03:58:52;;;;;;;;;;;;;;;;;;5055470;28;1614;-73
2022/07/27 04:01:18;;;;;;;;;;;;;;;;;;5064526;28;1396;-73
2022/07/27 04:03:44;;;;;;;;;;;;;;;;;;5060104;28;1400;-72
2022/07/27 04:06:10;;;;;;;;;;;;;;;;;;5062902;28;1079;-71
2022/07/27 04:08:36;;;;;;;;;;;;;;;;;;5072870;28;1008;-71
2022/07/27 04:11:03;;;;;;;;;;;;;;;;;;5072491;28;1067;-71
2022/07/27 04:13:30;;;;;;;;;;;;;;;;;;5072007;28;1914;-70
2022/07/27 04:15:56;;;;;;;;;;;;;;;;;;5072859;28;1007;-71
2022/07/27 04:18:23;;;;;;;;;;;;;;;;;;5072710;28;1079;-71
2022/07/27 04:20:49;;;;;;;;;;;;;;;;;;5072492;28;916;-71
2022/07/27 04:23:15;;;;;;;;;;;;;;;;;;5071868;28;1294;-71
2022/07/27 04:25:41;;;;;;;;;;;;;;;;;;5072359;28;1142;-71
2022/07/27 04:28:07;;;;;;;;;;;;;;;;;;5072049;28;1072;-70
2022/07/27 04:30:35;;;;;;;;;;;;;;;;;;5072251;28;945;-71
2022/07/27 04:33:01;;;;;;;;;;;;;;;;;;5071566;28;1985;-71
2022/07/27 04:35:27;;;;;;;;;;;;;;;;;;5054144;28;1299;-70
2022/07/27 04:37:54;;;;;;;;;;;;;;;;;;5071897;28;866;-70
2022/07/27 04:40:20;;;;;;;;;;;;;;;;;;5071934;28;785;-71
2022/07/27 04:42:46;;;;;;;;;;;;;;;;;;5053855;28;1153;-71
2022/07/27 04:45:12;;;;;;;;;;;;;;;;;;5053808;28;1353;-71
2022/07/27 04:47:40;;;;;;;;;;;;;;;;;;5047814;28;1466;-70
2022/07/27 04:50:06;;;;;;;;;;;;;;;;;;5042043;28;1336;-71
2022/07/27 04:52:32;;;;;;;;;;;;;;;;;;5055744;28;1978;-71
2022/07/27 04:54:59;;;;;;;;;;;;;;;;;;5059284;28;1442;-70
2022/07/27 04:57:25;;;;;;;;;;;;;;;;;;5065681;28;1456;-70
2022/07/27 04:59:51;;;;;;;;;;;;;;;;;;5063434;28;1165;-70
2022/07/27 05:02:17;;;;;;;;;;;;;;;;;;5071393;28;1095;-70
2022/07/27 05:04:45;;;;;;;;;;;;;;;;;;5071669;28;1297;-69
2022/07/27 05:07:11;;;;;;;;;;;;;;;;;;5071476;28;1114;-70
2022/07/27 05:09:37;;;;;;;;;;;;;;;;;;5071602;28;1083;-71
2022/07/27 05:12:03;;;;;;;;;;;;;;;;;;5071056;28;1916;-70
2022/07/27 05:14:29;;;;;;;;;;;;;;;;;;5071111;28;1391;-70
2022/07/27 05:16:56;;;;;;;;;;;;;;;;;;5071061;28;1059;-70
2022/07/27 05:19:22;;;;;;;;;;;;;;;;;;5064430;28;1475;-70
2022/07/27 05:21:49;;;;;;;;;;;;;;;;;;5050994;28;881;-70
2022/07/27 05:24:15;;;;;;;;;;;;;;;;;;5051033;28;1306;-69
2022/07/27 05:26:42;;;;;;;;;;;;;;;;;;5046238;28;1421;-70
2022/07/27 05:29:08;;;;;;;;;;;;;;;;;;5044174;28;950;-70
2022/07/27 05:31:34;;;;;;;;;;;;;;;;;;5052070;28;1434;-71
2022/07/27 05:34:00;;;;;;;;;;;;;;;;;;5054087;28;1918;-70
2022/07/27 05:36:26;;;;;;;;;;;;;;;;;;5054878;28;1508;-70
2022/07/27 05:38:54;;;;;;;;;;;;;;;;;;5057388;28;1591;-70
2022/07/27 05:41:21;;;;;;;;;;;;;;;;;;5056205;28;1392;-70
2022/07/27 05:43:48;;;;;;;;;;;;;;;;;;5056427;28;1491;-71
2022/07/27 05:46:14;;;;;;;;;;;;;;;;;;5060771;28;1213;-71
2022/07/27 05:48:40;;;;;;;;;;;;;;;;;;5059707;28;1412;-73
2022/07/27 05:51:07;;;;;;;;;;;;;;;;;;5060320;28;1424;-72
2022/07/27 05:53:33;;;;;;;;;;;;;;;;;;5063733;28;1979;-72
2022/07/27 05:56:01;;;;;;;;;;;;;;;;;;5063411;28;1213;-71
2022/07/27 05:58:28;;;;;;;;;;;;;;;;;;5049868;28;1578;-71
2022/07/27 06:00:55;;;;;;;;;;;;;;;;;;5062019;28;1411;-71
2022/07/27 06:03:21;;;;;;;;;;;;;;;;;;5052991;28;1444;-71
2022/07/27 06:05:47;;;;;;;;;;;;;;;;;;5058487;28;1480;-72
2022/07/27 06:08:12;;;;;;;;;;;;;;;;;;5047086;28;1208;-72
2022/07/27 06:10:39;;;;;;;;;;;;;;;;;;5069776;28;1114;-70
2022/07/27 06:13:07;;;;;;;;;;;;;;;;;;5046745;28;1910;-71
2022/07/27 06:15:34;;;;;;;;;;;;;;;;;;5060810;28;1113;-71
2022/07/27 06:18:01;;;;;;;;;;;;;;;;;;5054583;28;1090;-71
2022/07/27 06:20:27;;;;;;;;;;;;;;;;;;5056154;28;1475;-71
2022/07/27 06:22:54;;;;;;;;;;;;;;;;;;5070429;28;1201;-72
2022/07/27 06:25:21;;;;;;;;;;;;;;;;;;5047033;28;1320;-70
2022/07/27 06:27:47;;;;;;;;;;;;;;;;;;5048966;28;1428;-71
2022/07/27 06:30:15;;;;;;;;;;;;;;;;;;5053648;28;1169;-72
2022/07/27 06:32:42;;;;;;;;;;;;;;;;;;5052120;28;1976;-71
2022/07/27 06:35:08;;;;;;;;;;;;;;;;;;5073991;28;1318;-71
2022/07/27 06:37:35;;;;;;;;;;;;;;;;;;5067890;28;1504;-70
2022/07/27 06:40:01;;;;;;;;;;;;;;;;;;5056815;28;1615;-70
2022/07/27 06:42:28;;;;;;;;;;;;;;;;;;5055845;28;1218;-70
2022/07/27 06:44:55;;;;;;;;;;;;;;;;;;5072085;28;1412;-71
2022/07/27 06:47:22;;;;;;;;;;;;;;;;;;5059151;28;1559;-71
2022/07/27 06:49:49;;;;;;;;;;;;;;;;;;5051507;28;1286;-70
2022/07/27 06:52:15;;;;;;;;;;;;;;;;;;5056183;28;1918;-70
2022/07/27 06:54:41;;;;;;;;;;;;;;;;;;5062493;28;1477;-71
2022/07/27 06:57:07;;;;;;;;;;;;;;;;;;5057960;28;1429;-69
2022/07/27 06:59:33;;;;;;;;;;;;;;;;;;5065293;28;1221;-71
2022/07/27 07:02:00;;;;;;;;;;;;;;;;;;5053025;28;1468;-70
2022/07/27 07:04:27;;;;;;;;;;;;;;;;;;5059791;28;1485;-69
2022/07/27 07:06:53;;;;;;;;;;;;;;;;;;5059565;28;1420;-70
2022/07/27 07:09:20;;;;;;;;;;;;;;;;;;5055007;28;1372;-70
2022/07/27 07:11:47;;;;;;;;;;;;;;;;;;5059880;28;1653;-70
2022/07/27 07:14:13;;;;;;;;;;;;;;;;;;5067870;28;1913;-69
2022/07/27 07:16:39;;;;;;;;;;;;;;;;;;5059659;28;1468;-71
2022/07/27 07:19:05;;;;;;;;;;;;;;;;;;5064930;28;1158;-70
2022/07/27 07:21:33;;;;;;;;;;;;;;;;;;5052433;28;1483;-71
2022/07/27 07:23:59;;;;;;;;;;;;;;;;;;5061241;28;1404;-70
2022/07/27 07:26:25;;;;;;;;;;;;;;;;;;5048263;28;1089;-70
2022/07/27 07:28:51;;;;;;;;;;;;;;;;;;5036616;28;1429;-71
2022/07/27 07:31:18;;;;;;;;;;;;;;;;;;5061055;28;1629;-70
2022/07/27 07:33:44;;;;;;;;;;;;;;;;;;5072778;28;1914;-70
2022/07/27 07:36:11;;;;;;;;;;;;;;;;;;5062767;28;1460;-70
2022/07/27 07:38:38;;;;;;;;;;;;;;;;;;5058405;28;1353;-70
2022/07/27 07:41:04;;;;;;;;;;;;;;;;;;5059176;28;1440;-70
2022/07/27 07:43:30;;;;;;;;;;;;;;;;;;5053337;28;1397;-71
2022/07/27 07:45:57;;;;;;;;;;;;;;;;;;5054574;28;1396;-70
2022/07/27 07:48:23;;;;;;;;;;;;;;;;;;5058526;28;1380;-71
2022/07/27 07:50:49;;;;;;;;;;;;;;;;;;5050881;28;1396;-71
2022/07/27 07:53:16;;;;;;;;;;;;;;;;;;5044896;28;1915;-71
2022/07/27 07:55:43;;;;;;;;;;;;;;;;;;5072212;28;1133;-71
2022/07/27 07:58:09;;;;;;;;;;;;;;;;;;5068921;28;1008;-71
2022/07/27 08:00:35;;;;;;;;;;;;;;;;;;5072147;28;1188;-70
2022/07/27 08:03:02;;;;;;;;;;;;;;;;;;5071423;28;1411;-70
2022/07/27 08:05:28;;;;;;;;;;;;;;;;;;5053802;28;1475;-70
2022/07/27 08:07:54;;;;;;;;;;;;;;;;;;5060885;28;1452;-69
2022/07/27 08:10:21;;;;;;;;;;;;;;;;;;5031900;28;1141;-68
2022/07/27 08:12:49;;;;;;;;;;;;;;;;;;5031716;28;1999;-68
2022/07/27 08:15:16;;;;;;;;;;;;;;;;;;5049508;28;1321;-70
2022/07/27 08:17:42;;;;;;;;;;;;;;;;;;5051474;28;1087;-69
2022/07/27 08:20:09;;;;;;;;;;;;;;;;;;5051651;28;1022;-69
2022/07/27 08:22:35;;;;;;;;;;;;;;;;;;5049347;28;1440;-69
2022/07/27 08:25:02;;;;;;;;;;;;;;;;;;5062431;28;1483;-70
2022/07/27 08:27:28;;;;;;;;;;;;;;;;;;5070857;22;4217;-74
2022/07/27 08:29:56;;;;;;;;;;;;;;;;;;5070513;28;1137;-71
2022/07/27 08:32:22;;;;;;;;;;;;;;;;;;5070136;28;897;-72
2022/07/27 08:34:48;;;;;;;;;;;;;;;;;;5063398;28;1922;-72
2022/07/27 08:37:14;;;;;;;;;;;;;;;;;;5067817;28;1481;-71
2022/07/27 08:39:40;;;;;;;;;;;;;;;;;;5071501;28;1216;-72
2022/07/27 08:42:08;;;;;;;;;;;;;;;;;;5070567;28;1219;-72
2022/07/27 08:44:34;;;;;;;;;;;;;;;;;;5070449;28;1426;-72
2022/07/27 08:47:02;;;;;;;;;;;;;;;;;;5069826;28;1533;-71
2022/07/27 08:49:28;;;;;;;;;;;;;;;;;;5056707;28;1063;-72
2022/07/27 08:51:54;;;;;;;;;;;;;;;;;;5067565;28;1323;-72
2022/07/27 08:54:20;;;;;;;;;;;;;;;;;;5068136;28;1997;-71
2022/07/27 08:56:47;;;;;;;;;;;;;;;;;;5071022;28;1145;-73
2022/07/27 08:59:13;;;;;;;;;;;;;;;;;;5062420;28;1481;-71
2022/07/27 09:01:39;;;;;;;;;;;;;;;;;;5070331;28;1166;-73
2022/07/27 09:04:08;;;;;;;;;;;;;;;;;;5062418;28;1398;-71
2022/07/27 09:06:41;;;;;;;;;;;;;;;;;;5067945;28;1791;-72
2022/07/27 09:09:07;;;;;;;;;;;;;;;;;;5062337;28;1482;-72
2022/07/27 09:11:35;;;;;;;;;;;;;;;;;;5069260;28;1345;-72
2022/07/27 09:14:02;;;;;;;;;;;;;;;;;;5078766;28;1910;-73
2022/07/27 09:16:29;;;;;;;;;;;;;;;;;;5070803;28;1160;-72
2022/07/27 09:18:58;;;;;;;;;;;;;;;;;;5068798;28;1430;-72
2022/07/27 09:21:25;;;;;;;;;;;;;;;;;;5069550;28;1477;-71
2022/07/27 09:23:52;;;;;;;;;;;;;;;;;;5070928;28;1547;-73
2022/07/27 09:26:19;;;;;;;;;;;;;;;;;;5069877;28;1418;-73
2022/07/27 09:28:45;;;;;;;;;;;;;;;;;;5068513;28;1450;-75
2022/07/27 09:31:12;;;;;;;;;;;;;;;;;;5073267;28;1174;-72
2022/07/27 09:33:42;;;;;;;;;;;;;;;;;;5068949;28;1925;-73
2022/07/27 09:36:08;;;;;;;;;;;;;;;;;;5061545;28;1348;-73
2022/07/27 09:38:36;;;;;;;;;;;;;;;;;;5070326;28;1437;-71
2022/07/27 09:41:03;;;;;;;;;;;;;;;;;;5058820;28;1355;-74
2022/07/27 09:43:29;;;;;;;;;;;;;;;;;;5069775;28;1357;-73
2022/07/27 09:45:55;;;;;;;;;;;;;;;;;;5061010;28;1322;-72
2022/07/27 09:48:22;;;;;;;;;;;;;;;;;;5070297;28;1478;-73
2022/07/27 09:50:59;;;;;;;;;;;;;;;;;;5069502;28;1623;-72
2022/07/27 09:53:27;;;;;;;;;;;;;;;;;;5066794;28;1977;-72
2022/07/27 09:55:58;;;;;;;;;;;;;;;;;;5066783;28;1509;-74
2022/07/27 09:58:38;;;;;;;;;;;;;;;;;;5071952;28;1394;-72
2022/07/27 10:01:04;;;;;;;;;;;;;;;;;;5070785;28;1070;-72
2022/07/27 10:03:30;;;;;;;;;;;;;;;;;;5069970;28;1446;-74
2022/07/27 10:05:56;;;;;;;;;;;;;;;;;;5068701;28;1353;-74
2022/07/27 10:08:23;;;;;;;;;;;;;;;;;;5052904;28;1414;-74
2022/07/27 10:10:49;;;;;;;;;;;;;;;;;;5050706;28;1012;-74
2022/07/27 10:13:16;;;;;;;;;;;;;;;;;;5059161;28;1423;-72
2022/07/27 10:15:42;;;;;;;;;;;;;;;;;;5062696;28;1918;-72
2022/07/27 10:18:10;;;;;;;;;;;;;;;;;;5065581;28;1392;-72
2022/07/27 10:20:36;;;;;;;;;;;;;;;;;;5063967;28;1168;-74
2022/07/27 10:23:03;;;;;;;;;;;;;;;;;;5072743;28;1192;-74
2022/07/27 10:25:30;;;;;;;;;;;;;;;;;;5089096;28;1125;-74
2022/07/27 10:28:07;;;;;;;;;;;;;;;;;;5083621;28;1429;-75
2022/07/27 10:30:34;;;;;;;;;;;;;;;;;;5063478;28;1204;-73
2022/07/27 10:33:02;;;;;;;;;;;;;;;;;;5069612;28;949;-74
2022/07/27 10:35:32;;;;;;;;;;;;;;;;;;5063746;28;1979;-75
2022/07/27 10:38:08;;;;;;;;;;;;;;;;;;5064288;28;1443;-73
2022/07/27 10:40:35;;;;;;;;;;;;;;;;;;5060966;28;1376;-75
2022/07/27 10:43:06;;;;;;;;;;;;;;;;;;5060263;28;1492;-73
2022/07/27 10:45:39;;;;;;;;;;;;;;;;;;5070230;28;1212;-74
2022/07/27 10:48:05;;;;;;;;;;;;;;;;;;5075317;28;1462;-74
2022/07/27 10:50:31;;;;;;;;;;;;;;;;;;5072408;28;1388;-75
2022/07/27 10:52:59;;;;;;;;;;;;;;;;;;5072900;28;1240;-75
2022/07/27 10:55:41;;;;;;;;;;;;;;;;;;5072010;28;1918;-74
2022/07/27 10:58:22;;;;;;;;;;;;;;;;;;5073287;28;1385;-75
2022/07/27 11:01:00;;;;;;;;;;;;;;;;;;5072726;28;1063;-75
2022/07/27 11:03:26;;;;;;;;;;;;;;;;;;5073110;28;1059;-75
2022/07/27 11:05:53;;;;;;;;;;;;;;;;;;5068729;28;1559;-74
2022/07/27 11:08:23;;;;;;;;;;;;;;;;;;5072509;28;1380;-75
2022/07/27 11:10:50;;;;;;;;;;;;;;;;;;5066034;28;1563;-74
2022/07/27 11:13:16;;;;;;;;;;;;;;;;;;5072324;28;1209;-75
2022/07/27 11:15:49;;;;;;;;;;;;;;;;;;5073350;28;1927;-76
2022/07/27 11:18:17;;;;;;;;;;;;;;;;;;5072875;28;1414;-74
2022/07/27 11:20:43;;;;;;;;;;;;;;;;;;5073100;28;1087;-75
2022/07/27 11:23:17;;;;;;;;;;;;;;;;;;5072584;28;933;-74
2022/07/27 11:25:56;;;;;;;;;;;;;;;;;;5072326;28;1482;-73
2022/07/27 11:28:27;;;;;;;;;;;;;;;;;;5072880;28;1328;-75
2022/07/27 11:30:53;;;;;;;;;;;;;;;;;;5073167;28;1132;-76
2022/07/27 11:33:21;;;;;;;;;;;;;;;;;;5072859;28;838;-76
2022/07/27 11:35:50;;;;;;;;;;;;;;;;;;5072761;28;1989;-75
2022/07/27 11:38:16;;;;;;;;;;;;;;;;;;5072622;28;1403;-75
2022/07/27 11:40:43;;;;;;;;;;;;;;;;;;5071865;28;1289;-75
2022/07/27 11:43:10;;;;;;;;;;;;;;;;;;5072480;28;702;-73
2022/07/27 11:45:38;;;;;;;;;;;;;;;;;;5071438;28;1335;-75
2022/07/27 11:48:07;;;;;;;;;;;;;;;;;;5072624;28;1329;-75
2022/07/27 11:50:34;;;;;;;;;;;;;;;;;;5072682;28;1115;-77
2022/07/27 11:53:00;;;;;;;;;;;;;;;;;;5072399;28;1024;-75
2022/07/27 11:55:26;;;;;;;;;;;;;;;;;;5072536;28;1918;-75
2022/07/27 11:57:53;;;;;;;;;;;;;;;;;;5081020;28;1409;-76
2022/07/27 12:00:19;;;;;;;;;;;;;;;;;;5092950;28;995;-74
2022/07/27 12:02:48;;;;;;;;;;;;;;;;;;5079139;28;1062;-75
2022/07/27 12:05:14;;;;;;;;;;;;;;;;;;5072364;28;1071;-75
2022/07/27 12:07:43;;;;;;;;;;;;;;;;;;5072000;28;1395;-75
2022/07/27 12:10:10;;;;;;;;;;;;;;;;;;5071854;28;1103;-74
2022/07/27 12:12:36;;;;;;;;;;;;;;;;;;5071908;28;1098;-74
2022/07/27 12:15:03;;;;;;;;;;;;;;;;;;5072425;28;1910;-74
2022/07/27 12:17:29;;;;;;;;;;;;;;;;;;5071942;28;1300;-74
2022/07/27 12:19:56;;;;;;;;;;;;;;;;;;5072363;28;1415;-74
2022/07/27 12:22:24;;;;;;;;;;;;;;;;;;5071891;28;774;-75
2022/07/27 12:24:52;;;;;;;;;;;;;;;;;;5071950;28;1102;-75
2022/07/27 12:27:18;;;;;;;;;;;;;;;;;;5070140;28;1395;-75
2022/07/27 12:29:54;;;;;;;;;;;;;;;;;;5067620;28;1349;-75
2022/07/27 12:32:21;;;;;;;;;;;;;;;;;;5068134;28;1064;-76
2022/07/27 12:34:47;;;;;;;;;;;;;;;;;;5070104;28;1906;-75
2022/07/27 12:37:13;;;;;;;;;;;;;;;;;;5070188;28;1482;-75
2022/07/27 12:39:41;;;;;;;;;;;;;;;;;;5069073;28;1353;-73
2022/07/27 12:42:09;;;;;;;;;;;;;;;;;;5071562;28;1134;-76
2022/07/27 12:44:36;;;;;;;;;;;;;;;;;;5071403;28;1059;-76
2022/07/27 12:47:39;;;;;;;;;;;;;;;;;;5071386;28;981;-75
2022/07/27 12:50:04;;;;;;;;;;;;;;;;;;5071038;28;1031;-75
2022/07/27 12:52:30;;;;;;;;;;;;;;;;;;5069218;28;1096;-75
2022/07/27 12:54:56;;;;;;;;;;;;;;;;;;5071027;28;1987;-75
2022/07/27 12:57:24;;;;;;;;;;;;;;;;;;5071215;28;1320;-75
2022/07/27 12:59:50;;;;;;;;;;;;;;;;;;5071283;28;1067;-76
2022/07/27 13:02:16;;;;;;;;;;;;;;;;;;5076436;28;1075;-75
2022/07/27 13:04:43;;;;;;;;;;;;;;;;;;5077579;28;1546;-76
2022/07/27 13:07:09;;;;;;;;;;;;;;;;;;5072493;28;1658;-75
2022/07/27 13:09:35;;;;;;;;;;;;;;;;;;5064423;28;1149;-76
2022/07/27 13:12:01;;;;;;;;;;;;;;;;;;5062285;28;1391;-75
2022/07/27 13:14:29;;;;;;;;;;;;;;;;;;5071406;28;1975;-75
2022/07/27 13:16:55;;;;;;;;;;;;;;;;;;5069833;28;1297;-74
2022/07/27 13:19:21;;;;;;;;;;;;;;;;;;5071003;28;1293;-75
2022/07/27 13:21:48;;;;;;;;;;;;;;;;;;5070705;28;1129;-74
2022/07/27 13:24:14;;;;;;;;;;;;;;;;;;5071105;28;888;-75
2022/07/27 13:26:40;;;;;;;;;;;;;;;;;;5069917;28;1481;-73
2022/07/27 13:29:06;;;;;;;;;;;;;;;;;;5055552;28;1478;-75
2022/07/27 13:31:34;;;;;;;;;;;;;;;;;;5069909;28;1398;-76
2022/07/27 13:34:00;;;;;;;;;;;;;;;;;;5071043;28;1107;-74
2022/07/27 13:36:26;;;;;;;;;;;;;;;;;;5072720;28;1918;-76
2022/07/27 13:38:53;;;;;;;;;;;;;;;;;;5072788;28;1408;-75
2022/07/27 13:41:19;;;;;;;;;;;;;;;;;;5069907;28;1424;-75
2022/07/27 13:43:45;;;;;;;;;;;;;;;;;;5070441;28;1208;-75
2022/07/27 13:46:11;;;;;;;;;;;;;;;;;;5070753;28;968;-76
2022/07/27 13:48:39;;;;;;;;;;;;;;;;;;5069215;28;1346;-75
2022/07/27 13:51:05;;;;;;;;;;;;;;;;;;5071111;28;1122;-75
2022/07/27 13:53:31;;;;;;;;;;;;;;;;;;5069534;28;1481;-74
2022/07/27 13:55:57;;;;;;;;;;;;;;;;;;5069192;28;1973;-75
2022/07/27 13:58:23;;;;;;;;;;;;;;;;;;5068037;28;1325;-75
2022/07/27 14:00:50;;;;;;;;;;;;;;;;;;5071931;28;1063;-75
2022/07/27 14:03:16;;;;;;;;;;;;;;;;;;5070632;28;1146;-73
2022/07/27 14:05:44;;;;;;;;;;;;;;;;;;5070427;28;904;-75
2022/07/27 14:08:10;;;;;;;;;;;;;;;;;;5069098;28;1430;-75
2022/07/27 14:10:40;;;;;;;;;;;;;;;;;;5070578;28;1064;-75
2022/07/27 14:13:08;;;;;;;;;;;;;;;;;;5070313;28;1106;-76
2022/07/27 14:15:34;;;;;;;;;;;;;;;;;;5063864;28;1910;-76
2022/07/27 14:18:01;;;;;;;;;;;;;;;;;;5066211;28;1440;-77
2022/07/27 14:20:27;;;;;;;;;;;;;;;;;;5062140;28;1184;-75
2022/07/27 14:22:55;;;;;;;;;;;;;;;;;;5072762;28;1464;-74
2022/07/27 14:25:21;;;;;;;;;;;;;;;;;;5072433;28;1518;-74
2022/07/27 14:27:47;;;;;;;;;;;;;;;;;;5073410;28;1289;-74
2022/07/27 14:30:13;;;;;;;;;;;;;;;;;;5074335;28;997;-79
2022/07/27 14:32:39;;;;;;;;;;;;;;;;;;5073789;28;1123;-74
2022/07/27 14:35:06;;;;;;;;;;;;;;;;;;5081147;22;2493;-67
2022/07/27 14:37:33;;;;;;;;;;;;;;;;;;5068047;28;1334;-69
2022/07/27 14:40:00;;;;;;;;;;;;;;;;;;5067624;28;1129;-67
2022/07/27 14:42:27;;;;;;;;;;;;;;;;;;5069934;28;1110;-67
2022/07/27 14:44:53;;;;;;;;;;;;;;;;;;5070693;28;1630;-67
2022/07/27 14:47:19;;;;;;;;;;;;;;;;;;5071825;28;1427;-68
2022/07/27 14:49:45;;;;;;;;;;;;;;;;;;5073401;28;1125;-67
2022/07/27 14:52:13;;;;;;;;;;;;;;;;;;5058867;28;1070;-68
2022/07/27 14:54:39;;;;;;;;;;;;;;;;;;5068659;28;1553;-68
2022/07/27 14:57:06;;;;;;;;;;;;;;;;;;5072106;28;1987;-68
2022/07/27 14:59:32;;;;;;;;;;;;;;;;;;5073436;28;1070;-68
2022/07/27 15:01:59;;;;;;;;;;;;;;;;;;5078968;28;1117;-68
2022/07/27 15:04:25;;;;;;;;;;;;;;;;;;5093335;28;1293;-68
2022/07/27 15:06:51;;;;;;;;;;;;;;;;;;5091783;28;1420;-67
2022/07/27 15:09:17;;;;;;;;;;;;;;;;;;5087837;28;1446;-67
2022/07/27 15:11:44;;;;;;;;;;;;;;;;;;5067395;28;1125;-68
2022/07/27 15:14:11;;;;;;;;;;;;;;;;;;5072424;28;1381;-67
2022/07/27 15:16:38;;;;;;;;;;;;;;;;;;5072613;28;1914;-67
2022/07/27 15:19:04;;;;;;;;;;;;;;;;;;5072454;28;896;-70
2022/07/27 15:21:30;;;;;;;;;;;;;;;;;;5072697;28;948;-66
2022/07/27 15:23:56;;;;;;;;;;;;;;;;;;5072530;28;1323;-67
2022/07/27 15:26:22;;;;;;;;;;;;;;;;;;5072810;28;1118;-68
2022/07/27 15:28:48;;;;;;;;;;;;;;;;;;5072504;28;936;-68
2022/07/27 15:31:16;;;;;;;;;;;;;;;;;;5072302;28;1394;-68
2022/07/27 15:33:42;;;;;;;;;;;;;;;;;;5069805;28;1500;-67
2022/07/27 15:36:08;;;;;;;;;;;;;;;;;;5070918;28;1919;-68
2022/07/27 15:38:35;;;;;;;;;;;;;;;;;;5071316;28;1549;-70
2022/07/27 15:41:01;;;;;;;;;;;;;;;;;;5071984;28;1144;-67
2022/07/27 15:43:27;;;;;;;;;;;;;;;;;;5068011;28;2044;-67
2022/07/27 15:45:53;;;;;;;;;;;;;;;;;;5070346;28;1408;-68
2022/07/27 15:48:21;;;;;;;;;;;;;;;;;;5071844;28;1334;-68
2022/07/27 15:50:49;;;;;;;;;;;;;;;;;;5069832;28;1662;-67
2022/07/27 15:53:15;;;;;;;;;;;;;;;;;;5074376;28;1411;-68
2022/07/27 15:55:42;;;;;;;;;;;;;;;;;;5071962;28;2043;-68
2022/07/27 15:58:08;;;;;;;;;;;;;;;;;;5076442;28;1389;-67
2022/07/27 16:00:35;;;;;;;;;;;;;;;;;;5068704;28;1361;-67
2022/07/27 16:03:01;;;;;;;;;;;;;;;;;;5068203;28;1572;-67
2022/07/27 16:05:29;;;;;;;;;;;;;;;;;;5072577;28;1332;-68
2022/07/27 16:07:55;;;;;;;;;;;;;;;;;;5071413;28;1075;-68
2022/07/27 16:10:21;;;;;;;;;;;;;;;;;;5072355;28;956;-69
2022/07/27 16:12:48;;;;;;;;;;;;;;;;;;5071081;28;1248;-68
2022/07/27 16:15:14;;;;;;;;;;;;;;;;;;5072297;28;1342;-68
2022/07/27 16:17:40;;;;;;;;;;;;;;;;;;5072485;28;682;-69
2022/07/27 16:20:07;;;;;;;;;;;;;;;;;;5072476;28;944;-68
2022/07/27 16:22:38;;;;;;;;;;;;;;;;;;5072098;28;1115;-68
2022/07/27 16:25:04;;;;;;;;;;;;;;;;;;5072391;28;1383;-68
2022/07/27 16:27:30;;;;;;;;;;;;;;;;;;5072176;28;988;-68
2022/07/27 16:29:57;;;;;;;;;;;;;;;;;;5072103;28;1075;-68
2022/07/27 16:32:23;;;;;;;;;;;;;;;;;;5070994;28;1540;-68
2022/07/27 16:34:49;;;;;;;;;;;;;;;;;;5071692;28;1469;-67
2022/07/27 16:37:16;;;;;;;;;;;;;;;;;;5070761;28;1918;-68
2022/07/27 16:39:43;;;;;;;;;;;;;;;;;;5064834;28;1423;-68
2022/07/27 16:42:09;;;;;;;;;;;;;;;;;;5068918;28;1408;-68
2022/07/27 16:44:38;;;;;;;;;;;;;;;;;;5068708;28;1410;-68
2022/07/27 16:47:05;;;;;;;;;;;;;;;;;;5069948;28;1131;-68
2022/07/27 16:49:31;;;;;;;;;;;;;;;;;;5068241;28;1470;-68
2022/07/27 16:51:57;;;;;;;;;;;;;;;;;;5068847;28;1438;-68
2022/07/27 16:54:24;;;;;;;;;;;;;;;;;;5069703;28;1325;-68
2022/07/27 16:56:51;;;;;;;;;;;;;;;;;;5069539;28;1991;-68
2022/07/27 16:59:17;;;;;;;;;;;;;;;;;;5069876;28;861;-68
2022/07/27 17:01:43;;;;;;;;;;;;;;;;;;5068079;28;1435;-70
2022/07/27 17:04:09;;;;;;;;;;;;;;;;;;5068542;28;1488;-69
2022/07/27 17:06:36;;;;;;;;;;;;;;;;;;5069191;28;1112;-69
2022/07/27 17:09:02;;;;;;;;;;;;;;;;;;5068401;28;1440;-69